Time;durP1;ratioP1;P1;durP2;ratioP2;P2;SDS_P1;SDS_P2;PMS_P1;PMS_P2;Temp;Humidity;BMP_temperature;BMP_pressure;BME280_temperature;BME280_humidity;BME280_pressure;Samples;Min_cycle;Max_cycle;Signal;HPM_P1;HPM_P2
2023/02/06 00:05:19;;;;;;;24.25;14.57;;;13.40;2201.60;;;;;;4994415;28;20043;-83
2023/02/06 00:12:10;;;;;;;19.88;11.50;;;13.60;2201.60;;;;;;4924094;29;20308;-83
2023/02/06 00:15:17;;;;;;;17.25;10.45;;;13.60;2201.60;;;;;;4904155;29;20022;-82
2023/02/06 00:17:50;;;;;;;21.88;14.10;;;13.60;2201.60;;;;;;4919640;29;20037;-80
2023/02/06 00:20:45;;;;;;;26.90;14.50;;;13.60;2201.60;;;;;;5043082;23;20045;-81
2023/02/06 00:23:45;;;;;;;25.60;12.23;;;13.60;2201.60;;;;;;4993307;28;20039;-83
2023/02/06 00:26:26;;;;;;;20.92;10.98;;;13.60;2201.60;;;;;;4991533;28;20123;-81
2023/02/06 00:30:07;;;;;;;19.42;10.55;;;13.70;2201.60;;;;;;4994270;28;20027;-80
2023/02/06 00:33:27;;;;;;;17.85;9.57;;;38.40;2201.60;;;;;;4996022;28;20031;-83
2023/02/06 00:36:16;;;;;;;25.90;12.30;;;38.50;2201.60;;;;;;4911339;28;20023;-81
2023/02/06 00:39:15;;;;;;;19.38;10.60;;;38.50;2201.60;;;;;;4971057;28;20078;-83
2023/02/06 00:42:48;;;;;;;17.60;11.23;;;38.40;2201.60;;;;;;4988902;28;20090;-83
2023/02/06 00:45:40;;;;;;;21.02;11.15;;;38.50;2201.60;;;;;;4995858;28;20029;-81
2023/02/06 00:49:25;;;;;;;19.67;12.48;;;38.60;2201.60;;;;;;4993412;28;20027;-81
2023/02/06 00:52:23;;;;;;;22.33;12.40;;;38.50;2201.60;;;;;;4938334;29;20072;-81
2023/02/06 00:55:30;;;;;;;21.40;12.38;;;38.50;2201.60;;;;;;4940327;29;20042;-81
2023/02/06 00:58:24;;;;;;;18.83;11.23;;;38.50;2201.60;;;;;;4924818;29;20013;-81
2023/02/06 01:01:11;;;;;;;21.38;10.55;;;38.50;2201.60;;;;;;4924648;29;20041;-82
2023/02/06 01:04:32;;;;;;;18.13;10.82;;;38.60;2201.60;;;;;;4905849;29;20057;-83
2023/02/06 01:14:08;;;;;;;16.55;11.02;;;38.60;2201.60;;;;;;4918005;29;20091;-81
2023/02/06 01:17:10;;;;;;;19.35;11.73;;;38.50;2201.60;;;;;;4904575;29;20045;-83
2023/02/06 01:23:17;;;;;;;25.85;13.35;;;38.70;2201.60;;;;;;4881234;29;20045;-81
2023/02/06 01:26:43;;;;;;;25.98;16.83;;;38.60;2201.60;;;;;;4864831;29;20054;-82
2023/02/06 01:33:17;;;;;;;19.73;12.88;;;38.60;2201.60;;;;;;4823514;29;20042;-83
2023/02/06 01:37:10;;;;;;;29.00;16.55;;;38.50;2201.60;;;;;;4829324;29;20231;-83
2023/02/06 01:40:38;;;;;;;32.33;16.15;;;38.50;2201.60;;;;;;4793022;30;20044;-83
2023/02/06 01:43:52;;;;;;;35.72;16.42;;;38.60;2201.60;;;;;;4778119;30;20039;-82
2023/02/06 01:46:54;;;;;;;25.02;14.43;;;38.70;2201.60;;;;;;4763177;30;20051;-82
2023/02/06 01:50:05;;;;;;;24.83;13.93;;;38.80;2201.60;;;;;;4826803;29;20039;-82
2023/02/06 01:53:20;;;;;;;56.60;25.63;;;38.80;2201.60;;;;;;4819162;29;20131;-81
2023/02/06 01:56:34;;;;;;;42.17;19.77;;;38.70;2201.60;;;;;;4828143;29;20046;-82
2023/02/06 02:00:21;;;;;;;26.40;15.20;;;38.70;2201.60;;;;;;4797352;29;20039;-82
2023/02/06 02:06:36;;;;;;;28.23;15.23;;;38.90;2201.60;;;;;;4828862;29;20034;-82
2023/02/06 02:10:11;;;;;;;28.10;14.68;;;38.90;2201.60;;;;;;4866970;29;20037;-83
2023/02/06 02:12:59;;;;;;;26.58;13.65;;;38.80;2201.60;;;;;;4864796;29;20034;-81
2023/02/06 02:16:06;;;;;;;22.15;12.48;;;38.90;2201.60;;;;;;4895511;29;20040;-82
2023/02/06 02:19:46;;;;;;;19.40;10.00;;;38.90;2201.60;;;;;;4882282;29;20077;-83
2023/02/06 02:23:27;;;;;;;17.15;9.65;;;38.90;2201.60;;;;;;4852441;29;20187;-81
2023/02/06 02:26:49;;;;;;;16.60;8.82;;;38.90;2201.60;;;;;;4845948;29;20030;-82
2023/02/06 02:30:24;;;;;;;13.55;8.95;;;38.90;2201.60;;;;;;4864310;29;20029;-83
2023/02/06 02:33:34;;;;;;;14.65;8.63;;;39.00;2201.60;;;;;;4831136;29;20067;-82
2023/02/06 02:39:52;;;;;;;14.18;8.25;;;39.00;2201.60;;;;;;4865337;29;20036;-83
2023/02/06 02:43:10;;;;;;;14.57;8.50;;;39.00;2201.60;;;;;;4816096;29;20115;-81
2023/02/06 02:50:06;;;;;;;16.10;8.43;;;39.00;2201.60;;;;;;4851516;29;20074;-82
2023/02/06 03:23:47;;;;;;;15.98;8.45;;;39.10;2201.60;;;;;;4901994;29;20090;-82
2023/02/06 03:27:13;;;;;;;13.13;7.72;;;39.00;2201.60;;;;;;4874129;29;20013;-83
2023/02/06 03:30:30;;;;;;;13.55;8.25;;;39.00;2201.60;;;;;;4846433;29;20058;-82
2023/02/06 03:34:09;;;;;;;14.07;8.57;;;39.00;2201.60;;;;;;4816210;29;20045;-83
2023/02/06 03:43:40;;;;;;;17.13;10.18;;;38.90;2201.60;;;;;;4898177;29;20730;-80
2023/02/06 03:46:52;;;;;;;15.57;10.23;;;38.80;2201.60;;;;;;4873399;29;20049;-79
2023/02/06 03:53:50;;;;;;;17.50;9.50;;;38.80;2201.60;;;;;;4849310;29;20055;-82
2023/02/06 04:05:01;;;;;;;22.55;11.60;;;38.80;2201.60;;;;;;4811828;29;20019;-85
2023/02/06 04:08:04;;;;;;;20.90;11.60;;;38.80;2201.60;;;;;;4834594;29;20044;-83
2023/02/06 04:11:21;;;;;;;17.42;9.48;;;38.80;2201.60;;;;;;4877900;29;20014;-84
2023/02/06 04:34:09;;;;;;;22.65;13.15;;;38.90;2201.60;;;;;;5022161;28;20037;-83
2023/02/06 04:37:48;;;;;;;24.15;13.38;;;39.00;2201.60;;;;;;5011025;28;20038;-81
2023/02/06 04:41:11;;;;;;;37.33;16.92;;;39.00;2201.60;;;;;;4938749;28;20020;-85
2023/02/06 04:44:19;;;;;;;22.67;11.40;;;38.90;2201.60;;;;;;5020820;28;20048;-84
2023/02/06 04:47:26;;;;;;;31.35;14.98;;;39.00;2201.60;;;;;;5010804;28;20045;-82
2023/02/06 04:54:31;;;;;;;49.28;26.80;;;39.00;2201.60;;;;;;4962392;29;20043;-82
2023/02/06 04:57:44;;;;;;;23.15;13.02;;;39.10;2201.60;;;;;;4958825;29;20050;-81
2023/02/06 05:01:26;;;;;;;24.02;14.07;;;39.00;2201.60;;;;;;4932802;29;20079;-83
2023/02/06 05:04:20;;;;;;;19.90;11.75;;;39.00;2201.60;;;;;;4943461;29;20116;-82
2023/02/06 05:07:42;;;;;;;21.58;12.93;;;39.10;2201.60;;;;;;4928158;29;20023;-84
2023/02/06 05:11:02;;;;;;;20.73;11.77;;;39.10;2201.60;;;;;;4954529;29;20023;-82
2023/02/06 05:13:54;;;;;;;30.40;16.50;;;39.10;2201.60;;;;;;4941915;29;20024;-82
2023/02/06 05:17:35;;;;;;;29.52;16.05;;;39.10;2201.60;;;;;;4917002;29;20025;-84
2023/02/06 05:24:04;;;;;;;23.50;13.73;;;39.00;2201.60;;;;;;4944621;29;20217;-81
2023/02/06 05:27:30;;;;;;;;;;;39.00;2201.60;;;;;;4918969;29;20039;-83
2023/02/06 05:31:04;;;;;;;22.00;13.25;;;39.10;2201.60;;;;;;4865838;29;19918;-82
2023/02/06 05:34:20;;;;;;;21.60;13.23;;;39.00;2201.60;;;;;;4848161;29;20034;-82
2023/02/06 05:38:01;;;;;;;18.52;11.15;;;39.00;2201.60;;;;;;4807447;29;20073;-83
2023/02/06 05:41:43;;;;;;;24.80;14.25;;;39.00;2201.60;;;;;;4810649;29;20027;-83
2023/02/06 05:48:57;;;;;;;27.70;13.82;;;39.10;2201.60;;;;;;4897022;23;20036;31
2023/02/06 05:52:49;;;;;;;21.45;13.45;;;39.10;2201.60;;;;;;4918857;29;20067;-84
2023/02/06 05:56:18;;;;;;;34.10;20.92;;;39.30;2201.60;;;;;;4902964;29;20053;-83
2023/02/06 06:07:05;;;;;;;40.10;24.60;;;64.00;2201.60;;;;;;4775546;29;20070;-83
2023/02/06 06:09:38;;;;;;;33.67;18.92;;;39.30;2201.60;;;;;;4768521;30;20047;-83
2023/02/06 06:12:05;;;;;;;34.38;19.83;;;64.00;2201.60;;;;;;4753031;30;20074;-81
2023/02/06 06:14:36;;;;;;;37.88;20.20;;;64.20;2201.60;;;;;;4807535;29;20043;-83
2023/02/06 06:17:24;;;;;;;48.05;28.25;;;39.30;2201.60;;;;;;4826365;29;20034;-82
2023/02/06 06:20:27;;;;;;;50.15;27.13;;;39.20;2201.60;;;;;;4843665;29;20483;-83
2023/02/06 06:24:02;;;;;;;103.35;49.22;;;39.30;2201.60;;;;;;4847328;29;20042;-84
2023/02/06 06:27:19;;;;;;;52.40;28.80;;;39.20;2201.60;;;;;;4846789;29;20065;-82
2023/02/06 06:33:23;;;;;;;49.70;27.52;;;39.20;2201.60;;;;;;4847016;29;20021;-82
2023/02/06 06:36:43;;;;;;;43.58;26.15;;;39.30;2201.60;;;;;;4841873;29;20084;-82
2023/02/06 06:40:05;;;;;;;34.15;23.17;;;39.20;2201.60;;;;;;4857821;29;20059;-82
2023/02/06 06:43:31;;;;;;;29.10;18.00;;;39.20;2201.60;;;;;;4862424;29;20045;-82
2023/02/06 06:46:55;;;;;;;19.00;12.95;;;39.30;2201.60;;;;;;4862426;29;20089;-82
2023/02/06 06:49:29;;;;;;;33.88;16.80;;;39.30;2201.60;;;;;;4845056;29;20038;-83
2023/02/06 06:52:35;;;;;;;21.13;12.07;;;64.00;2201.60;;;;;;4826412;29;20025;-81
2023/02/06 06:59:13;;;;;;;18.98;11.18;;;64.00;2201.60;;;;;;4880960;29;20095;-81
2023/02/06 07:02:04;;;;;;;38.92;18.30;;;39.30;2201.60;;;;;;4872605;29;20053;-82
2023/02/06 07:04:41;;;;;;;33.70;17.90;;;39.30;2201.60;;;;;;4873102;29;20042;-81
2023/02/06 07:07:24;;;;;;;33.90;19.10;;;64.00;2201.60;;;;;;4843024;29;20040;-82
2023/02/06 07:10:26;;;;;;;36.30;19.45;;;39.20;2201.60;;;;;;4884544;29;20037;-82
2023/02/06 07:13:34;;;;;;;67.03;35.53;;;39.20;2201.60;;;;;;4862042;29;20033;-82
2023/02/06 07:16:24;;;;;;;27.85;18.00;;;39.10;2201.60;;;;;;4891605;29;20033;-82
2023/02/06 07:19:15;;;;;;;53.97;26.27;;;39.20;2201.60;;;;;;4884437;29;20018;-82
2023/02/06 07:22:29;;;;;;;43.17;24.90;;;39.20;2201.60;;;;;;4899757;29;20017;-82
2023/02/06 07:26:14;;;;;;;37.72;20.02;;;39.10;2201.60;;;;;;4893797;29;20009;-82
2023/02/06 07:29:41;;;;;;;34.00;18.10;;;39.10;2201.60;;;;;;4919224;29;20057;-82
2023/02/06 07:35:45;;;;;;;31.30;18.65;;;39.00;2201.60;;;;;;4873570;29;20046;-84
2023/02/06 07:42:26;;;;;;;36.70;20.35;;;39.00;2201.60;;;;;;4901762;29;20097;-83
2023/02/06 07:45:33;;;;;;;29.65;17.60;;;39.00;2201.60;;;;;;4844681;29;20035;-83
2023/02/06 07:48:20;;;;;;;43.72;23.75;;;38.90;2201.60;;;;;;4829415;29;20086;-83
2023/02/06 07:51:56;;;;;;;23.67;14.50;;;38.80;2201.60;;;;;;4809620;29;20043;-82
2023/02/06 07:54:47;;;;;;;35.15;20.55;;;38.80;2201.60;;;;;;4825008;29;20031;-81
2023/02/06 07:57:15;;;;;;;39.78;23.85;;;38.70;2201.60;;;;;;4806039;29;20090;-80
2023/02/06 07:59:59;;;;;;;26.88;17.52;;;38.70;2201.60;;;;;;4817764;29;20039;-80
2023/02/06 08:02:46;;;;;;;22.27;14.77;;;38.60;2201.60;;;;;;4835881;29;20034;-80
2023/02/06 08:05:38;;;;;;;28.42;18.48;;;38.60;2201.60;;;;;;4839903;29;20034;-80
2023/02/06 08:08:34;;;;;;;23.13;15.75;;;38.60;2201.60;;;;;;4836646;29;20026;-81
2023/02/06 08:11:19;;;;;;;49.10;28.40;;;38.50;2201.60;;;;;;4837145;29;20537;-82
2023/02/06 08:13:51;;;;;;;19.42;13.88;;;38.50;2201.60;;;;;;4838986;29;20046;-81
2023/02/06 08:16:31;;;;;;;24.88;16.83;;;38.50;2201.60;;;;;;4839414;29;20094;-83
2023/02/06 08:22:49;;;;;;;25.90;14.90;;;38.40;2201.60;;;;;;4843821;29;20072;-82
2023/02/06 08:25:42;;;;;;;24.70;15.07;;;38.40;2201.60;;;;;;4844221;29;20034;-83
2023/02/06 08:28:48;;;;;;;26.42;14.63;;;13.70;2201.60;;;;;;4834953;29;20563;-81
2023/02/06 08:31:47;;;;;;;23.70;13.98;;;13.70;2201.60;;;;;;4832356;29;20087;-81
2023/02/06 08:35:14;;;;;;;22.52;13.50;;;13.70;2201.60;;;;;;4861240;29;20037;-82
2023/02/06 08:38:42;;;;;;;23.85;13.23;;;13.60;2201.60;;;;;;4853361;29;20046;-82
2023/02/06 08:42:46;;;;;;;19.30;10.82;;;13.50;2201.60;;;;;;4863502;29;20021;-82
2023/02/06 08:45:45;;;;;;;22.88;12.68;;;13.60;2201.60;;;;;;4875074;29;20033;-83
2023/02/06 08:49:37;;;;;;;25.13;14.60;;;13.60;2201.60;;;;;;4899003;29;20037;-81
2023/02/06 08:52:46;;;;;;;29.17;16.17;;;13.50;2201.60;;;;;;4806574;29;20031;-82
2023/02/06 08:56:26;;;;;;;31.67;19.02;;;13.40;2201.60;;;;;;4811201;29;20107;-82
2023/02/06 08:59:18;;;;;;;31.85;16.63;;;13.40;2201.60;;;;;;4802799;29;20055;-82
2023/02/06 09:02:10;;;;;;;24.67;13.63;;;13.30;2201.60;;;;;;4874059;29;20102;-81
2023/02/06 09:04:36;;;;;;;19.70;12.00;;;13.30;2201.60;;;;;;4871896;29;20061;-79
2023/02/06 09:07:03;;;;;;;19.33;10.68;;;0.20;2201.60;;;;;;4870155;29;20034;-80
2023/02/06 09:09:28;;;;;;;25.10;14.70;;;13.10;2201.60;;;;;;4868328;29;20045;-79
2023/02/06 09:11:56;;;;;;;28.80;18.13;;;13.10;2201.60;;;;;;4865596;29;20029;-81
2023/02/06 09:14:22;;;;;;;34.35;20.02;;;13.00;2201.60;;;;;;4865275;29;20045;-80
2023/02/06 09:16:48;;;;;;;29.88;20.38;;;13.00;2201.60;;;;;;4871876;29;20413;-81
2023/02/06 09:19:15;;;;;;;30.65;17.52;;;13.00;2201.60;;;;;;4883832;29;20041;-82
2023/02/06 09:21:43;;;;;;;31.05;19.70;;;13.30;2201.60;;;;;;4899420;29;20090;-82
2023/02/06 09:24:10;;;;;;;35.80;21.23;;;12.90;2201.60;;;;;;4898686;29;20016;-82
2023/02/06 09:26:39;;;;;;;32.15;18.83;;;0.40;2201.60;;;;;;4901894;29;20181;-82
2023/02/06 09:29:17;;;;;;;30.95;18.92;;;12.90;2201.60;;;;;;4900281;29;20005;-82
2023/02/06 09:31:46;;;;;;;64.35;33.10;;;12.90;2201.60;;;;;;4884954;29;20025;-82
2023/02/06 09:34:24;;;;;;;38.08;22.65;;;12.90;2201.60;;;;;;4860291;29;20049;-80
2023/02/06 09:36:55;;;;;;;38.20;20.42;;;0.20;2201.60;;;;;;4892716;29;20040;-81
2023/02/06 09:39:22;;;;;;;34.50;20.80;;;12.90;2201.60;;;;;;4893236;29;20069;-82
2023/02/06 09:41:52;;;;;;;30.00;18.35;;;12.90;2201.60;;;;;;4879946;29;20029;-83
2023/02/06 09:44:47;;;;;;;31.45;19.02;;;12.90;2201.60;;;;;;4895277;29;20036;-82
2023/02/06 09:47:44;;;;;;;58.47;30.73;;;0.00;2201.60;;;;;;4901266;29;20046;-80
2023/02/06 09:51:00;;;;;;;73.88;38.75;;;12.90;2201.60;;;;;;4896230;29;20066;-83
2023/02/06 09:54:22;;;;;;;67.93;37.67;;;0.00;2201.60;;;;;;4888600;29;20066;-84
2023/02/06 10:01:19;;;;;;;166.48;76.90;;;12.90;2201.60;;;;;;4903450;29;20044;-82
2023/02/06 10:07:54;;;;;;;177.60;92.15;;;13.00;2201.60;;;;;;4923151;29;20019;-84
2023/02/06 10:25:19;;;;;;;29.08;19.00;;;0.70;2201.60;;;;;;4954207;29;20043;-81
2023/02/06 10:28:48;;;;;;;27.15;17.25;;;0.80;2201.60;;;;;;4941036;29;20106;-81
2023/02/06 10:31:38;;;;;;;33.13;22.02;;;0.80;2201.60;;;;;;4935583;29;20066;-80
2023/02/06 10:35:32;;;;;;;34.45;21.55;;;0.90;2201.60;;;;;;4949795;29;20519;-81
2023/02/06 10:38:40;;;;;;;33.20;19.55;;;25.60;2201.60;;;;;;4901703;29;20037;-82
2023/02/06 10:41:46;;;;;;;27.73;16.40;;;25.70;2201.60;;;;;;4902663;29;20097;-82
2023/02/06 10:44:23;;;;;;;29.58;15.30;;;0.80;2201.60;;;;;;5010241;23;20041;-80
2023/02/06 10:47:23;;;;;;;25.58;16.00;;;0.90;2201.60;;;;;;4994827;28;20073;-82
2023/02/06 10:50:40;;;;;;;21.05;13.15;;;25.60;2201.60;;;;;;4971063;23;20046;-83
2023/02/06 10:53:48;;;;;;;28.63;17.83;;;25.80;2201.60;;;;;;4989032;28;20058;-84
2023/02/06 11:00:29;;;;;;;24.65;15.45;;;26.10;2201.60;;;;;;4965547;28;20092;-83
2023/02/06 11:03:21;;;;;;;25.70;14.85;;;26.00;2201.60;;;;;;4939743;29;20030;-81
2023/02/06 11:06:03;;;;;;;19.30;10.83;;;26.20;2201.60;;;;;;4920285;29;20031;-82
2023/02/06 11:08:40;;;;;;;23.42;13.90;;;26.10;2201.60;;;;;;4937090;29;20065;-82
2023/02/06 11:15:43;;;;;;;18.58;11.38;;;26.10;2201.60;;;;;;4846589;29;20030;-83
2023/02/06 11:18:47;;;;;;;31.02;18.67;;;25.90;2201.60;;;;;;4822185;29;20092;-83
2023/02/06 11:22:20;;;;;;;33.47;20.75;;;26.00;2201.60;;;;;;4807293;29;20038;-80
2023/02/06 11:25:08;;;;;;;;;;;26.10;2201.60;;;;;;4851318;29;20024;-81
2023/02/06 11:27:42;;;;;;;34.85;21.02;;;26.20;2201.60;;;;;;4916612;29;19939;-80
2023/02/06 11:31:13;;;;;;;19.93;11.73;;;26.40;2201.60;;;;;;4902383;29;20115;-81
2023/02/06 11:34:29;;;;;;;46.42;25.50;;;26.30;2201.60;;;;;;4850964;29;20037;-81
2023/02/06 11:41:33;;;;;;;32.70;18.25;;;51.30;2227.20;;;;;;4860975;29;20041;-81
2023/02/06 11:44:49;;;;;;;29.88;16.88;;;51.60;2227.20;;;;;;4813697;29;20042;-81
2023/02/06 11:48:17;;;;;;;30.10;18.92;;;51.90;2227.20;;;;;;4863721;29;20054;-79
2023/02/06 11:51:26;;;;;;;24.95;17.33;;;76.90;2227.20;;;;;;4874443;29;20034;-81
2023/02/06 11:54:27;;;;;;;17.83;11.18;;;77.20;2227.20;;;;;;4862093;29;20045;-79
2023/02/06 12:00:37;;;;;;;26.80;16.42;;;77.50;2227.20;;;;;;4853970;29;20070;-84
2023/02/06 12:04:43;;;;;;;30.95;19.15;;;102.40;2201.60;;;;;;4878608;29;20028;-79
2023/02/06 12:08:01;;;;;;;25.85;15.95;;;102.80;2176.00;;;;;;4881882;29;20052;-82
2023/02/06 12:11:30;;;;;;;28.92;14.63;;;103.00;2150.40;;;;;;4897685;29;20037;-81
2023/02/06 12:31:25;;;;;;;62.80;38.08;;;128.40;2073.60;;;;;;4977806;29;20066;-82
2023/02/06 12:35:04;;;;;;;280.42;119.03;;;128.60;2073.60;;;;;;4921529;29;20049;-82
2023/02/06 12:41:54;;;;;;;82.38;43.85;;;128.70;2022.40;;;;;;4865844;29;20041;-83
2023/02/06 12:45:22;;;;;;;47.90;29.45;;;128.70;2022.40;;;;;;4864865;29;20030;-81
2023/02/06 12:48:27;;;;;;;143.88;78.22;;;128.90;1996.80;;;;;;4851827;29;20030;-81
2023/02/06 13:11:28;;;;;;;37.03;22.05;;;128.40;1996.80;;;;;;4843136;29;20128;-82
2023/02/06 14:08:15;;;;;;;33.67;20.83;;;77.40;2227.20;;;;;;4958335;29;20071;-82
2023/02/06 14:14:46;;;;;;;31.10;18.67;;;52.00;2227.20;;;;;;4960169;29;20051;-85
2023/02/06 14:25:06;;;;;;;28.15;18.90;;;51.30;2227.20;;;;;;4936888;28;20019;-82
2023/02/06 15:41:19;;;;;;;58.00;35.85;;;0.40;2201.60;;;;;;5068707;23;20050;-80
2023/02/06 15:43:49;;;;;;;58.63;32.40;;;0.50;2201.60;;;;;;5016423;28;20050;-81
2023/02/06 15:46:16;;;;;;;125.38;67.78;;;0.50;2201.60;;;;;;5001771;28;20026;-79
2023/02/06 15:49:54;;;;;;;69.85;40.47;;;0.40;2201.60;;;;;;5004026;28;20034;-79
2023/02/06 15:52:41;;;;;;;55.17;31.58;;;0.60;2201.60;;;;;;4973827;28;20040;-79
2023/02/06 16:22:28;;;;;;;44.83;23.83;;;0.00;2201.60;;;;;;1209424;23;20525;-80
2023/02/06 16:25:29;;;;;;;45.28;23.85;;;0.10;2201.60;;;;;;4994781;28;20106;-79
2023/02/06 16:28:08;;;;;;;32.10;20.52;;;0.10;2201.60;;;;;;4973684;28;20046;-82
2023/02/06 16:30:36;;;;;;;39.42;21.35;;;0.00;2201.60;;;;;;4990121;28;20029;-80
2023/02/06 16:35:55;;;;;;;43.67;27.77;;;0.00;2201.60;;;;;;5019829;28;20034;-85
2023/02/06 16:50:32;;;;;;;39.00;21.70;;;0.00;2201.60;;;;;;4999226;28;20037;-85
2023/02/06 17:10:47;;;;;;;45.35;24.48;;;12.90;2201.60;;;;;;5638012;23;20044;-86
2023/02/06 19:03:22;;;;;;;38.42;21.17;;;13.20;2201.60;;;;;;2059474;23;20326;-84
2023/02/06 19:12:14;;;;;;;42.70;24.38;;;13.10;2201.60;;;;;;1531678;23;20302;-83
2023/02/06 19:15:32;;;;;;;32.60;21.35;;;13.10;2201.60;;;;;;4994205;28;20495;-82
2023/02/06 19:18:29;;;;;;;41.53;23.75;;;13.20;2201.60;;;;;;4926521;29;20024;-82
2023/02/06 19:48:37;;;;;;;30.35;19.13;;;13.30;2201.60;;;;;;4996201;28;20097;-83
2023/02/06 19:52:14;;;;;;;39.20;21.73;;;13.30;2201.60;;;;;;4986061;28;20019;-83
2023/02/06 19:55:42;;;;;;;41.58;23.67;;;13.30;2201.60;;;;;;4998725;28;20027;-83
2023/02/06 19:59:25;;;;;;;63.28;34.33;;;13.20;2201.60;;;;;;4940508;29;20040;-84
2023/02/06 20:05:36;;;;;;;73.03;38.97;;;13.10;2201.60;;;;;;4901148;29;20044;-83
2023/02/06 20:08:46;;;;;;;63.97;36.75;;;13.10;2201.60;;;;;;4871717;29;20060;-83
2023/02/06 20:11:41;;;;;;;59.78;33.80;;;13.10;2201.60;;;;;;4874763;29;20290;-84
2023/02/06 20:14:34;;;;;;;53.83;30.80;;;13.10;2201.60;;;;;;4895778;29;20038;-85
2023/02/06 20:17:41;;;;;;;36.80;22.80;;;13.20;2201.60;;;;;;4987774;23;20047;-82
2023/02/06 20:20:34;;;;;;;37.08;22.73;;;13.20;2201.60;;;;;;4992812;28;20054;-82
2023/02/06 20:23:13;;;;;;;31.90;18.92;;;13.20;2201.60;;;;;;4998055;28;20066;-86
2023/02/06 20:31:46;;;;;;;;;;;13.20;2201.60;;;;;;4988771;28;20046;-84
2023/02/06 20:34:29;;;;;;;34.45;17.88;;;13.30;2201.60;;;;;;5023444;23;19906;-87
2023/02/06 20:37:04;;;;;;;32.88;18.90;;;13.30;2201.60;;;;;;4987742;28;20019;-83
2023/02/06 20:50:21;;;;;;;56.30;34.28;;;13.00;2201.60;;;;;;4960646;28;20051;-85
2023/02/06 21:10:44;;;;;;;47.15;27.70;;;13.20;2201.60;;;;;;4116002;23;20242;-82
2023/02/06 21:13:35;;;;;;;38.83;23.48;;;13.20;2201.60;;;;;;4960498;28;20091;-82
2023/02/06 21:16:29;;;;;;;37.03;23.35;;;13.30;2201.60;;;;;;5001919;23;20065;-82
2023/02/06 21:18:56;;;;;;;37.53;23.08;;;13.20;2201.60;;;;;;4978281;28;20047;-81
2023/02/06 21:21:38;;;;;;;36.72;20.67;;;13.30;2201.60;;;;;;4995402;28;20023;-82
2023/02/06 21:24:29;;;;;;;37.50;22.48;;;13.30;2201.60;;;;;;4996427;28;20056;-83
2023/02/06 21:27:11;;;;;;;36.25;23.88;;;13.30;2201.60;;;;;;4966619;28;20039;-82
2023/02/06 21:29:58;;;;;;;34.30;21.05;;;13.30;2201.60;;;;;;4995535;28;20027;-83
2023/02/06 21:32:47;;;;;;;37.38;21.98;;;13.20;2201.60;;;;;;4957841;28;20094;-82
2023/02/06 21:35:46;;;;;;;34.90;21.00;;;13.30;2201.60;;;;;;4987186;28;20044;-80
2023/02/06 21:38:20;;;;;;;50.45;24.75;;;13.30;2201.60;;;;;;4986966;28;20046;-80
2023/02/06 21:41:14;;;;;;;55.10;27.98;;;13.30;2201.60;;;;;;4942597;28;20030;-82
2023/02/06 21:43:47;;;;;;;55.80;26.05;;;13.30;2201.60;;;;;;4980299;28;20027;-81
2023/02/06 21:46:39;;;;;;;58.97;24.70;;;13.30;2201.60;;;;;;4989800;28;20031;-80
2023/02/06 21:49:10;;;;;;;40.30;20.17;;;13.30;2201.60;;;;;;4976531;28;20039;-81
2023/02/06 21:51:56;;;;;;;51.67;26.60;;;13.30;2201.60;;;;;;4973917;28;20062;-81
2023/02/06 21:55:16;;;;;;;42.33;20.80;;;13.20;2201.60;;;;;;4962790;28;20043;-80
2023/02/06 21:58:22;;;;;;;45.20;22.25;;;13.30;2201.60;;;;;;4985717;28;20090;-82
2023/02/06 22:00:51;;;;;;;37.20;21.40;;;13.40;2201.60;;;;;;4991255;28;20022;-80
2023/02/06 22:03:21;;;;;;;41.08;23.70;;;13.30;2201.60;;;;;;4976758;28;20043;-81
2023/02/06 22:09:44;;;;;;;35.83;20.98;;;13.30;2201.60;;;;;;4994049;28;20038;-82
2023/02/06 22:13:16;;;;;;;44.83;27.40;;;13.30;2201.60;;;;;;4980958;28;20011;-83
2023/02/06 22:16:18;;;;;;;49.78;26.90;;;13.20;2201.60;;;;;;4946296;28;20034;-85
2023/02/06 22:20:02;;;;;;;42.50;24.38;;;13.20;2201.60;;;;;;4975153;28;20051;-81
2023/02/06 22:22:29;;;;;;;;;;;13.20;2201.60;;;;;;4982725;28;20023;-84
2023/02/06 22:25:42;;;;;;;47.33;24.38;;;13.20;2201.60;;;;;;4961571;28;19933;-81
2023/02/06 22:28:21;;;;;;;;;;;13.20;2201.60;;;;;;4891260;29;20053;-84
2023/02/06 22:31:44;;;;;;;36.10;19.80;;;13.30;2201.60;;;;;;5033357;23;19929;-85
2023/02/06 22:35:24;;;;;;;30.25;18.52;;;13.30;2201.60;;;;;;4956640;28;20035;-83
2023/02/06 22:38:22;;;;;;;35.72;19.15;;;13.20;2201.60;;;;;;4983222;28;20090;-84
2023/02/06 22:41:23;;;;;;;29.60;16.25;;;13.20;2201.60;;;;;;4996189;28;20022;-82
2023/02/06 22:46:30;;;;;;;39.00;20.52;;;13.20;2201.60;;;;;;4996310;28;20038;-83
2023/02/06 22:49:26;;;;;;;39.50;22.30;;;13.10;2201.60;;;;;;4965860;28;20045;-80
2023/02/06 22:55:14;;;;;;;51.65;25.88;;;13.20;2201.60;;;;;;4984748;28;20018;-80
2023/02/06 22:58:18;;;;;;;40.15;21.98;;;13.10;2201.60;;;;;;4986286;28;20062;-84
2023/02/06 23:08:43;;;;;;;44.83;24.02;;;13.10;2201.60;;;;;;4919402;29;20035;-83
2023/02/06 23:15:00;;;;;;;28.85;17.40;;;13.10;2201.60;;;;;;4921613;29;20064;-83
2023/02/06 23:22:12;;;;;;;38.50;19.80;;;13.10;2201.60;;;;;;4863323;29;20036;-83
2023/02/06 23:24:52;;;;;;;39.65;20.30;;;13.10;2201.60;;;;;;4856999;29;20072;-81
2023/02/06 23:30:46;;;;;;;37.58;20.95;;;13.20;2201.60;;;;;;5172242;23;20078;-81
2023/02/06 23:53:41;;;;;;;42.58;23.67;;;13.10;2201.60;;;;;;5037099;23;20102;-86
2023/02/06 23:57:10;;;;;;;52.15;25.50;;;13.00;2201.60;;;;;;4948131;28;20086;-86
